Stryker, Montana
Current Conditions -  °F | °C
As of 12:55 PM on Friday 21 Nov 2014 (Local Time) from KGPI Reporting Station
Haze Haze  
Wind Chill: 32°   Ceiling: 5000
Heat Index: 32°   Visibility: 4mi
Dew Point: 30°   Wind: 0mph
Humidity: 92%   Direction: NA
Pressure: 29.84"   Gusts: NA
Location:  48.67°N, 114.78°W
Report Text: KGPI 211955Z 00000KT 4SM BR FEW039 BKN050 OVC065 00/M01 A2984 RMK AO2 UPB44E55 SLP130 P0000 T00001011
Loading
Personal Weather Stations






























Interactive Weather Map New forecast layout! Learn more

10-Day Weather Forecast

Advertisements
Track Severe Weather on mobile